createdAt,value
2022-08-08T00:00:50.102Z,2.03
2022-08-08T00:03:20.128Z,2.03
2022-08-08T00:06:03.337Z,2.20
2022-08-08T00:08:50.835Z,1.90
2022-08-08T00:12:02.901Z,2.50
2022-08-08T00:14:58.657Z,2.33
2022-08-08T00:17:26.446Z,2.27
2022-08-08T00:20:14.740Z,2.30
2022-08-08T00:22:47.025Z,2.40
2022-08-08T00:25:21.734Z,2.30
2022-08-08T00:27:51.758Z,2.43
2022-08-08T00:30:19.363Z,2.30
2022-08-08T00:32:52.346Z,2.10
2022-08-08T00:35:39.953Z,2.40
2022-08-08T00:38:31.358Z,2.30
2022-08-08T00:41:16.787Z,1.90
2022-08-08T00:44:01.327Z,2.10
2022-08-08T00:46:55.899Z,2.40
2022-08-08T00:49:33.121Z,2.20
2022-08-08T00:52:06.517Z,2.40
2022-08-08T00:54:39.745Z,2.37
2022-08-08T00:57:34.406Z,2.70
2022-08-08T01:00:14.171Z,2.67
2022-08-08T01:03:58.961Z,2.43
2022-08-08T01:05:59.355Z,2.50
2022-08-08T01:08:28.725Z,2.30
2022-08-08T01:11:09.068Z,2.70
2022-08-08T01:13:44.344Z,2.43
2022-08-08T01:16:16.866Z,2.23
2022-08-08T01:19:02.634Z,2.40
2022-08-08T01:22:11.858Z,2.00
2022-08-08T01:24:50.748Z,2.60
2022-08-08T01:27:59.419Z,2.27
2022-08-08T01:30:27.597Z,2.57
2022-08-08T01:33:24.254Z,2.80
2022-08-08T01:36:08.734Z,2.40
2022-08-08T01:38:41.993Z,2.50
2022-08-08T01:41:34.287Z,2.40
2022-08-08T01:44:26.476Z,2.43
2022-08-08T01:48:15.484Z,2.33
2022-08-08T01:50:39.219Z,2.63
2022-08-08T01:55:16.221Z,2.77
2022-08-08T01:56:48.095Z,2.33
2022-08-08T01:59:38.134Z,2.40
2022-08-08T02:02:42.399Z,2.60
2022-08-08T02:05:55.524Z,2.70
2022-08-08T02:08:21.311Z,2.50
2022-08-08T02:10:54.815Z,2.60
2022-08-08T02:13:54.244Z,2.47
2022-08-08T02:16:22.403Z,2.97
2022-08-08T02:19:26.990Z,2.70
2022-08-08T02:22:16.550Z,2.70
2022-08-08T02:25:07.193Z,2.33
2022-08-08T02:27:56.880Z,2.60
2022-08-08T02:30:32.391Z,2.80
2022-08-08T02:33:08.450Z,2.87
2022-08-08T02:36:04.855Z,2.63
2022-08-08T02:38:30.135Z,2.43
2022-08-08T02:41:00.553Z,2.50
2022-08-08T02:44:38.804Z,2.60
2022-08-08T02:46:43.883Z,2.40
2022-08-08T02:49:48.328Z,2.60
2022-08-08T02:52:32.872Z,2.40
2022-08-08T02:55:19.837Z,2.83
2022-08-08T02:58:06.553Z,2.50
2022-08-08T03:00:53.149Z,2.83
2022-08-08T03:05:01.564Z,3.00
2022-08-08T03:06:43.186Z,2.63
2022-08-08T03:09:29.317Z,3.00
2022-08-08T03:12:13.762Z,2.50
2022-08-08T03:16:00.295Z,2.87
2022-08-08T03:18:00.134Z,2.83
2022-08-08T03:20:51.171Z,3.07
2022-08-08T03:23:19.259Z,2.87
2022-08-08T03:25:47.022Z,2.60
2022-08-08T03:28:18.776Z,2.80
2022-08-08T03:30:48.775Z,2.77
2022-08-08T03:33:56.944Z,2.77
2022-08-08T03:36:10.388Z,2.90
2022-08-08T03:38:57.739Z,3.10
2022-08-08T03:42:27.905Z,3.10
2022-08-08T03:44:25.291Z,3.00
2022-08-08T03:46:52.912Z,2.83
2022-08-08T03:50:00.536Z,3.20
2022-08-08T03:52:14.171Z,3.50
2022-08-08T03:55:02.185Z,3.10
2022-08-08T03:58:31.949Z,3.20
2022-08-08T04:00:20.344Z,3.07
2022-08-08T04:03:00.896Z,3.00
2022-08-08T04:05:30.108Z,3.00
2022-08-08T04:07:58.322Z,3.43
2022-08-08T04:10:26.088Z,3.70
2022-08-08T04:12:59.889Z,3.13
2022-08-08T04:15:38.211Z,3.90
2022-08-08T04:18:06.392Z,3.67
2022-08-08T04:20:36.563Z,3.53
2022-08-08T04:23:07.149Z,3.60
2022-08-08T04:25:36.779Z,3.70
2022-08-08T04:28:36.748Z,3.73
2022-08-08T04:30:55.344Z,3.93
2022-08-08T04:33:24.839Z,3.80
2022-08-08T04:35:54.241Z,3.83
2022-08-08T04:38:23.306Z,3.67
2022-08-08T04:40:54.041Z,4.07
2022-08-08T04:43:22.191Z,4.07
2022-08-08T04:45:50.344Z,3.83
2022-08-08T04:48:21.685Z,4.00
2022-08-08T04:50:50.346Z,4.00
2022-08-08T04:54:36.323Z,3.73
2022-08-08T04:56:05.125Z,4.10
2022-08-08T04:58:33.092Z,4.00
2022-08-08T05:01:08.751Z,3.77
2022-08-08T05:04:09.118Z,4.10
2022-08-08T05:06:27.905Z,4.00
2022-08-08T05:08:56.456Z,4.10
2022-08-08T05:11:30.371Z,3.83
2022-08-08T05:14:07.150Z,4.10
2022-08-08T05:16:51.431Z,4.57
2022-08-08T05:20:10.732Z,4.57
2022-08-08T05:22:09.800Z,4.23
2022-08-08T05:24:38.435Z,4.20
2022-08-08T05:27:06.324Z,4.60
2022-08-08T05:29:35.897Z,4.43
2022-08-08T05:32:07.228Z,4.13
2022-08-08T05:34:36.293Z,4.50
2022-08-08T05:37:15.745Z,4.10
2022-08-08T05:39:50.817Z,3.87
2022-08-08T05:42:19.527Z,4.23
2022-08-08T05:44:52.887Z,4.50
2022-08-08T05:47:21.789Z,4.27
2022-08-08T05:49:53.763Z,4.40
2022-08-08T05:52:32.156Z,3.97
2022-08-08T05:55:09.726Z,3.97
2022-08-08T05:58:04.841Z,4.43
2022-08-08T06:00:26.997Z,4.30
2022-08-08T06:03:17.446Z,3.73
2022-08-08T06:05:56.768Z,3.85
2022-08-08T06:08:54.700Z,3.28
2022-08-08T06:11:23.043Z,3.40
2022-08-08T06:13:55.504Z,3.92
2022-08-08T06:16:25.033Z,3.70
2022-08-08T06:18:57.551Z,3.15
2022-08-08T06:21:32.782Z,3.40
2022-08-08T06:24:13.759Z,3.00
2022-08-08T06:27:10.598Z,3.22
2022-08-08T06:30:00.003Z,2.97
2022-08-08T06:32:31.752Z,2.95
2022-08-08T06:36:03.906Z,3.22
2022-08-08T06:38:15.133Z,3.13
2022-08-08T06:40:48.837Z,3.42
2022-08-08T06:43:28.563Z,3.03
2022-08-08T06:45:58.113Z,3.17
2022-08-08T06:48:26.706Z,3.05
2022-08-08T06:50:55.623Z,3.20
2022-08-08T06:53:23.969Z,3.10
2022-08-08T06:56:02.168Z,3.70
2022-08-08T06:58:33.010Z,3.10
2022-08-08T07:01:01.844Z,3.50
2022-08-08T07:04:38.811Z,4.05
2022-08-08T07:06:44.940Z,3.58
2022-08-08T07:09:15.279Z,3.88
2022-08-08T07:11:50.962Z,4.03
2022-08-08T07:14:19.518Z,3.80
2022-08-08T07:16:50.147Z,4.30
2022-08-08T07:19:31.247Z,3.08
2022-08-08T07:22:05.513Z,3.08
2022-08-08T07:24:39.317Z,2.70
2022-08-08T07:27:16.734Z,2.72
2022-08-08T07:30:02.316Z,9.65
2022-08-08T07:32:32.296Z,3.30
2022-08-08T07:35:02.813Z,4.30
2022-08-08T07:38:05.020Z,3.40
2022-08-08T07:40:29.675Z,3.50
2022-08-08T07:43:01.579Z,3.30
2022-08-08T07:45:34.408Z,3.92
2022-08-08T07:48:03.273Z,3.00
2022-08-08T07:50:37.188Z,3.38
2022-08-08T07:54:02.367Z,3.40
2022-08-08T07:56:17.458Z,2.92
2022-08-08T07:59:04.790Z,2.85
2022-08-08T08:02:33.266Z,3.47
2022-08-08T08:04:29.063Z,3.53
2022-08-08T08:07:00.672Z,3.72
2022-08-08T08:09:35.863Z,3.17
2022-08-08T08:12:03.470Z,3.40
2022-08-08T08:14:36.690Z,3.50
2022-08-08T08:17:03.890Z,3.70
2022-08-08T08:19:45.833Z,3.30
2022-08-08T08:22:15.048Z,3.22
2022-08-08T08:24:46.643Z,3.35
2022-08-08T08:27:14.058Z,3.30
2022-08-08T08:29:42.418Z,3.85
2022-08-08T08:32:11.099Z,3.20
2022-08-08T08:34:43.466Z,3.42
2022-08-08T08:37:20.603Z,3.20
2022-08-08T08:40:01.749Z,3.30
2022-08-08T08:42:35.966Z,3.40
2022-08-08T08:45:21.771Z,3.22
2022-08-08T08:47:54.229Z,2.90
2022-08-08T08:50:33.940Z,2.75
2022-08-08T08:53:27.531Z,2.53
2022-08-08T08:56:02.227Z,2.90
2022-08-08T08:58:50.270Z,3.35
2022-08-08T09:01:23.881Z,2.83
2022-08-08T09:03:51.659Z,2.80
2022-08-08T09:06:26.909Z,2.80
2022-08-08T09:09:02.112Z,2.92
2022-08-08T09:11:33.407Z,2.83
2022-08-08T09:14:01.951Z,2.70
2022-08-08T09:16:32.905Z,3.60
2022-08-08T09:19:00.176Z,2.67
2022-08-08T09:22:01.797Z,2.72
2022-08-08T09:24:17.648Z,2.70
2022-08-08T09:26:51.573Z,2.45
2022-08-08T09:29:24.451Z,2.90
2022-08-08T09:31:56.928Z,2.40
2022-08-08T09:34:32.735Z,2.75
2022-08-08T09:37:39.522Z,2.78
2022-08-08T09:39:52.843Z,2.30
2022-08-08T09:42:30.956Z,2.20
2022-08-08T09:45:15.727Z,1.65
2022-08-08T09:48:12.733Z,2.33
2022-08-08T09:50:50.472Z,2.33
2022-08-08T09:53:24.882Z,2.30
2022-08-08T09:56:06.887Z,2.72
2022-08-08T09:58:41.552Z,2.30
2022-08-08T10:01:14.526Z,2.40
2022-08-08T10:03:44.388Z,2.28
2022-08-08T10:06:18.648Z,2.30
2022-08-08T10:08:46.942Z,1.98
2022-08-08T10:12:27.834Z,1.80
2022-08-08T10:14:10.869Z,1.60
2022-08-08T10:16:55.990Z,1.70
2022-08-08T10:19:38.389Z,1.85
2022-08-08T10:22:21.863Z,2.08
2022-08-08T10:24:49.426Z,1.80
2022-08-08T10:27:20.921Z,1.80
2022-08-08T10:29:58.142Z,1.63
2022-08-08T10:32:38.406Z,2.00
2022-08-08T10:35:11.568Z,1.60
2022-08-08T10:37:39.431Z,1.58
2022-08-08T10:40:16.465Z,1.90
2022-08-08T10:42:45.147Z,1.92
2022-08-08T10:45:15.956Z,1.98
2022-08-08T10:47:48.493Z,2.00
2022-08-08T10:50:20.666Z,2.00
2022-08-08T10:52:50.706Z,1.80
2022-08-08T10:55:39.646Z,2.00
2022-08-08T10:58:08.674Z,2.55
2022-08-08T11:00:48.367Z,2.00
2022-08-08T11:03:36.317Z,1.75
2022-08-08T11:06:12.455Z,1.65
2022-08-08T11:08:53.569Z,1.98
2022-08-08T11:12:00.148Z,2.08
2022-08-08T11:14:12.470Z,2.15
2022-08-08T11:16:46.862Z,2.10
2022-08-08T11:19:15.489Z,2.20
2022-08-08T11:21:55.844Z,2.10
2022-08-08T11:24:26.618Z,1.90
2022-08-08T11:26:57.871Z,1.80
2022-08-08T11:29:41.987Z,1.75
2022-08-08T11:32:14.869Z,2.00
2022-08-08T11:35:07.761Z,1.88
2022-08-08T11:38:34.420Z,1.95
2022-08-08T11:40:25.825Z,1.85
2022-08-08T11:42:54.949Z,2.00
2022-08-08T11:45:23.085Z,1.85
2022-08-08T11:48:04.540Z,2.15
2022-08-08T11:50:33.999Z,2.10
2022-08-08T11:53:06.022Z,2.30
2022-08-08T11:55:36.209Z,2.10
2022-08-08T11:58:14.397Z,2.28
2022-08-08T12:00:53.781Z,2.20
2022-08-08T12:03:21.229Z,1.90
2022-08-08T12:05:49.469Z,2.00
2022-08-08T12:08:18.028Z,2.13
2022-08-08T12:10:49.822Z,2.00
2022-08-08T12:13:38.057Z,2.72
2022-08-08T12:16:18.079Z,2.50
2022-08-08T12:18:46.537Z,2.67
2022-08-08T12:21:58.515Z,2.58
2022-08-08T12:24:28.307Z,2.60
2022-08-08T12:26:58.383Z,2.72
2022-08-08T12:29:40.438Z,2.45
2022-08-08T12:32:19.813Z,2.63
2022-08-08T12:34:50.915Z,2.70
2022-08-08T12:37:40.949Z,2.47
2022-08-08T12:40:23.997Z,2.40
2022-08-08T12:42:52.971Z,2.65
2022-08-08T12:45:57.889Z,2.55
2022-08-08T12:48:36.530Z,2.40
2022-08-08T12:51:07.773Z,2.38
2022-08-08T12:53:54.666Z,2.90
2022-08-08T12:56:39.833Z,2.50
2022-08-08T12:59:27.403Z,2.70
2022-08-08T13:02:09.970Z,2.42
2022-08-08T13:04:37.232Z,2.92
2022-08-08T13:07:07.010Z,2.40
2022-08-08T13:09:57.552Z,2.70
2022-08-08T13:12:46.934Z,2.47
2022-08-08T13:15:17.282Z,2.55
2022-08-08T13:18:07.789Z,2.80
2022-08-08T13:20:33.903Z,2.53
2022-08-08T13:23:30.623Z,2.75
2022-08-08T13:25:50.075Z,2.85
2022-08-08T13:28:28.028Z,3.08
2022-08-08T13:30:56.871Z,2.80
2022-08-08T13:33:25.304Z,2.50
2022-08-08T13:35:55.491Z,2.85
2022-08-08T13:38:23.949Z,2.55
2022-08-08T13:40:55.077Z,2.67
2022-08-08T13:43:23.007Z,2.70
2022-08-08T13:45:52.988Z,3.20
2022-08-08T13:48:25.851Z,3.00
2022-08-08T13:50:57.863Z,2.65
2022-08-08T13:53:41.213Z,2.63
2022-08-08T13:56:31.918Z,2.38
2022-08-08T13:58:59.148Z,2.88
2022-08-08T14:01:41.717Z,2.60
2022-08-08T14:04:25.975Z,2.60
2022-08-08T14:07:00.155Z,2.85
2022-08-08T14:10:05.346Z,2.58
2022-08-08T14:12:34.929Z,2.58
2022-08-08T14:15:03.070Z,2.78
2022-08-08T14:17:58.312Z,2.45
2022-08-08T14:20:56.299Z,2.80
2022-08-08T14:23:21.482Z,2.80
2022-08-08T14:26:10.611Z,2.78
2022-08-08T14:28:39.646Z,2.60
2022-08-08T14:31:11.485Z,2.70
2022-08-08T14:34:19.500Z,2.42
2022-08-08T14:36:54.905Z,2.40
2022-08-08T14:39:24.911Z,2.30
2022-08-08T14:42:09.753Z,2.65
2022-08-08T14:44:39.497Z,2.50
2022-08-08T14:47:21.368Z,2.50
2022-08-08T14:50:06.128Z,3.30
2022-08-08T14:52:40.595Z,2.70
2022-08-08T14:55:10.569Z,2.30
2022-08-08T14:58:05.885Z,2.40
2022-08-08T15:00:27.311Z,2.40
2022-08-08T15:02:58.518Z,2.40
2022-08-08T15:05:43.249Z,2.70
2022-08-08T15:08:22.125Z,3.03
2022-08-08T15:11:00.928Z,2.22
2022-08-08T15:13:40.032Z,2.95
2022-08-08T15:16:11.953Z,2.35
2022-08-08T15:18:44.244Z,2.30
2022-08-08T15:21:19.165Z,2.50
2022-08-08T15:23:51.025Z,2.60
2022-08-08T15:26:20.203Z,2.90
2022-08-08T15:28:50.804Z,2.88
2022-08-08T15:31:25.757Z,2.58
2022-08-08T15:34:08.627Z,3.00
2022-08-08T15:36:54.466Z,2.58
2022-08-08T15:39:21.708Z,2.85
2022-08-08T15:41:48.575Z,2.55
2022-08-08T15:44:18.220Z,2.58
2022-08-08T15:46:45.647Z,2.80
2022-08-08T15:49:20.535Z,3.17
2022-08-08T15:51:49.905Z,3.30
2022-08-08T15:54:18.790Z,3.00
2022-08-08T15:57:04.329Z,3.47
2022-08-08T16:00:05.862Z,4.30
2022-08-08T16:02:21.886Z,3.60
2022-08-08T16:04:58.635Z,3.47
2022-08-08T16:07:39.245Z,3.10
2022-08-08T16:13:03.454Z,3.10
2022-08-08T16:13:29.438Z,2.97
2022-08-08T16:15:57.205Z,3.10
2022-08-08T16:18:26.889Z,3.42
2022-08-08T16:20:54.008Z,3.38
2022-08-08T16:23:28.043Z,3.95
2022-08-08T16:26:03.974Z,3.25
2022-08-08T16:28:34.035Z,3.78
2022-08-08T16:31:07.563Z,3.92
2022-08-08T16:33:38.416Z,3.60
2022-08-08T16:36:08.690Z,3.28
2022-08-08T16:38:40.577Z,3.30
2022-08-08T16:41:18.418Z,3.03
2022-08-08T16:43:49.248Z,3.05
2022-08-08T16:46:39.246Z,2.50
2022-08-08T16:49:07.923Z,2.80
2022-08-08T16:55:00.447Z,3.30
2022-08-08T16:55:19.674Z,3.60
2022-08-08T16:58:12.032Z,2.95
2022-08-08T16:59:59.458Z,3.33
2022-08-08T17:02:38.712Z,4.10
2022-08-08T17:05:07.280Z,2.80
2022-08-08T17:07:37.477Z,2.78
2022-08-08T17:10:08.973Z,2.83
2022-08-08T17:12:36.984Z,2.80
2022-08-08T17:15:18.041Z,3.30
2022-08-08T17:18:03.801Z,2.78
2022-08-08T17:20:39.532Z,2.90
2022-08-08T17:23:16.887Z,3.55
2022-08-08T17:25:52.801Z,3.60
2022-08-08T17:28:31.481Z,3.53
2022-08-08T17:31:02.796Z,8.38
2022-08-08T17:34:37.026Z,3.30
2022-08-08T17:36:37.064Z,3.25
2022-08-08T17:39:46.264Z,3.08
2022-08-08T17:41:58.565Z,3.13
2022-08-08T17:44:29.939Z,2.70
2022-08-08T17:46:58.204Z,2.75
2022-08-08T17:49:28.601Z,2.70
2022-08-08T17:52:05.866Z,2.90
2022-08-08T17:54:34.401Z,3.10
2022-08-08T17:57:02.661Z,3.10
2022-08-08T17:59:30.497Z,2.75
2022-08-08T18:02:04.270Z,2.90
2022-08-08T18:04:36.038Z,2.75
2022-08-08T18:08:03.376Z,2.80
2022-08-08T18:09:54.312Z,2.70
2022-08-08T18:12:21.448Z,2.63
2022-08-08T18:14:52.088Z,3.10
2022-08-08T18:18:05.111Z,2.97
2022-08-08T18:20:42.992Z,2.85
2022-08-08T18:22:54.229Z,2.60
2022-08-08T18:25:21.662Z,2.80
2022-08-08T18:27:49.599Z,3.00
2022-08-08T18:30:16.752Z,3.00
2022-08-08T18:32:43.445Z,2.75
2022-08-08T18:35:16.719Z,2.50
2022-08-08T18:37:47.928Z,2.92
2022-08-08T18:40:16.057Z,2.50
2022-08-08T18:42:50.065Z,3.33
2022-08-08T18:46:06.299Z,2.80
2022-08-08T18:48:07.765Z,2.70
2022-08-08T18:50:39.699Z,2.78
2022-08-08T18:53:23.253Z,3.10
2022-08-08T18:55:50.489Z,3.38
2022-08-08T18:58:17.987Z,3.22
2022-08-08T19:00:50.255Z,3.10
2022-08-08T19:03:17.501Z,3.47
2022-08-08T19:05:51.527Z,4.13
2022-08-08T19:08:23.972Z,3.20
2022-08-08T19:10:53.579Z,3.33
2022-08-08T19:13:25.162Z,2.65
2022-08-08T19:15:55.797Z,3.33
2022-08-08T19:18:33.133Z,3.08
2022-08-08T19:21:29.162Z,3.65
2022-08-08T19:23:57.447Z,3.47
2022-08-08T19:26:30.265Z,3.70
2022-08-08T19:28:58.967Z,3.28
2022-08-08T19:31:31.814Z,3.30
2022-08-08T19:34:29.645Z,3.10
2022-08-08T19:36:52.423Z,2.97
2022-08-08T19:39:19.736Z,3.10
2022-08-08T19:41:50.284Z,3.30
2022-08-08T19:44:42.928Z,3.10
2022-08-08T19:47:06.695Z,3.08
2022-08-08T19:49:36.595Z,3.10
2022-08-08T19:52:05.562Z,3.50
2022-08-08T19:54:32.712Z,4.40
2022-08-08T19:57:04.117Z,2.90
2022-08-08T19:59:35.206Z,3.42
2022-08-08T20:02:04.262Z,4.28
2022-08-08T20:04:33.447Z,3.72
2022-08-08T20:07:03.610Z,3.20
2022-08-08T20:09:56.548Z,3.10
2022-08-08T20:12:32.934Z,3.67
2022-08-08T20:15:16.572Z,4.32
2022-08-08T20:17:45.524Z,3.90
2022-08-08T20:20:18.998Z,3.88
2022-08-08T20:22:48.987Z,3.55
2022-08-08T20:25:21.055Z,3.65
2022-08-08T20:27:49.426Z,3.38
2022-08-08T20:30:35.562Z,3.50
2022-08-08T20:33:19.729Z,4.20
2022-08-08T20:35:57.141Z,4.20
2022-08-08T20:38:29.075Z,4.10
2022-08-08T20:40:59.663Z,4.35
2022-08-08T20:43:43.525Z,4.70
2022-08-08T20:46:14.713Z,3.95
2022-08-08T20:48:41.980Z,4.30
2022-08-08T20:51:08.915Z,4.32
2022-08-08T20:54:00.393Z,3.67
2022-08-08T20:56:34.932Z,3.47
2022-08-08T20:59:06.018Z,3.42
2022-08-08T21:02:06.697Z,3.55
2022-08-08T21:04:20.780Z,3.47
2022-08-08T21:06:52.449Z,3.47
2022-08-08T21:09:21.522Z,3.45
2022-08-08T21:11:50.346Z,3.67
2022-08-08T21:14:30.303Z,4.22
2022-08-08T21:17:01.307Z,6.40
2022-08-08T21:19:44.098Z,6.85
2022-08-08T21:22:11.774Z,7.32
2022-08-08T21:24:39.642Z,5.78
2022-08-08T21:27:15.382Z,5.18
2022-08-08T21:30:03.869Z,4.15
2022-08-08T21:32:33.108Z,4.32
2022-08-08T21:36:17.478Z,3.90
2022-08-08T21:37:54.329Z,3.83
2022-08-08T21:40:31.014Z,4.18
2022-08-08T21:42:58.949Z,4.63
2022-08-08T21:48:01.567Z,4.95
2022-08-08T21:48:19.689Z,4.65
2022-08-08T21:50:49.762Z,4.45
2022-08-08T21:54:35.169Z,4.40
2022-08-08T21:56:26.462Z,4.05
2022-08-08T21:58:55.250Z,3.78
2022-08-08T22:01:38.840Z,3.60
2022-08-08T22:04:10.348Z,3.40
2022-08-08T22:06:39.721Z,3.95
2022-08-08T22:09:09.654Z,3.80
2022-08-08T22:12:02.931Z,3.83
2022-08-08T22:14:27.063Z,3.80
2022-08-08T22:16:56.299Z,4.00
2022-08-08T22:19:23.649Z,3.85
2022-08-08T22:21:51.690Z,3.78
2022-08-08T22:24:23.890Z,3.60
2022-08-08T22:27:01.529Z,3.92
2022-08-08T22:29:58.987Z,3.70
2022-08-08T22:32:18.807Z,3.58
2022-08-08T22:34:50.716Z,4.10
2022-08-08T22:37:48.780Z,4.18
2022-08-08T22:40:07.670Z,3.90
2022-08-08T22:42:47.197Z,4.50
2022-08-08T22:45:15.687Z,3.10
2022-08-08T22:47:48.709Z,3.80
2022-08-08T22:50:25.477Z,3.67
2022-08-08T22:54:31.898Z,3.55
2022-08-08T22:55:58.065Z,3.90
2022-08-08T22:58:29.350Z,3.47
2022-08-08T23:00:59.811Z,3.30
2022-08-08T23:03:34.368Z,3.50
2022-08-08T23:06:15.829Z,3.08
2022-08-08T23:08:44.446Z,3.63
2022-08-08T23:11:21.661Z,3.30
2022-08-08T23:13:53.645Z,2.92
2022-08-08T23:16:41.134Z,2.90
2022-08-08T23:19:10.439Z,3.05
2022-08-08T23:21:37.997Z,2.92
2022-08-08T23:24:06.685Z,2.95
2022-08-08T23:26:34.400Z,2.47
2022-08-08T23:29:01.988Z,3.28
2022-08-08T23:31:28.814Z,2.65
2022-08-08T23:34:16.755Z,2.70
2022-08-08T23:36:42.641Z,2.78
2022-08-08T23:39:09.945Z,3.20
2022-08-08T23:41:45.579Z,3.05
2022-08-08T23:44:13.260Z,2.90
2022-08-08T23:49:07.546Z,2.80
2022-08-08T23:49:26.859Z,3.05
2022-08-08T23:52:04.691Z,2.97
2022-08-08T23:54:41.857Z,3.17
2022-08-08T23:57:27.841Z,3.03
